Thunder radar more information blitzortung!


Radar de pluja more information rain snow radar


Visita la nostra xarxa de llocs de meteo:

Template documentation
and downloads

And another site



Wind From: 11-12-2017 11:00 Until: 14:59 warning for: Wind Level: Yellow info button

Pagina Historial Weather Underground text

Diari Resum Octubre 30, 2017 Unitats:  Mètric    Imperial   Tant
« Previous Dia
SegĂźent Dia »
Diari Setmana Mensual Anual Personalitzada
  Maxima: Minima: Media:
Temperatura: 18.5 °C 9.6 °C 15.5 °C
Punt de rosada: 10.1 °C 4.3 °C 9.2 °C
Humitat: 79 % 55 % 67 %
Wind Speed: 16.7 km/h 0.0 km/h 4.8 km/h
RĂ fegues de vent: 16.7 km/h - -
Vent:- - East
Pression baro: 1021.9 hPa 1015.8 hPa -
Precipitacions: 0.0 mm    
Historical Graphs
 
 
Dades de taula per Octubre 30, 2017
Temps Temperatura Punt de rosada Pression baro Vent Wind Speed RĂ fegues de vent Humitat Rainfall Rate (Hourly)
00:01 13.1 °C 4.5 °C 1016.8 hPa Calm     56 % 0.0 mm
00:06 13.1 °C 4.3 °C 1016.8 hPa WNW 1.9 km/h 1.9 km/h 55 % 0.0 mm
01:35 9.6 °C 5.0 °C 1017.8 hPa Calm   1.6 km/h 73 % 0.0 mm
01:45 10.0 °C 5.4 °C 1017.8 hPa NW 1.6 km/h 1.6 km/h 73 % 0.0 mm
01:55 10.5 °C 5.9 °C 1016.8 hPa North 1.6 km/h 6.4 km/h 73 % 0.0 mm
02:05 11.0 °C 6.3 °C 1016.8 hPa NE 1.6 km/h 3.2 km/h 73 % 0.0 mm
02:15 11.2 °C 6.3 °C 1017.8 hPa NE 4.8 km/h 6.4 km/h 72 % 0.0 mm
02:25 11.6 °C 6.7 °C 1017.8 hPa NE 3.2 km/h 4.8 km/h 72 % 0.0 mm
02:35 12.0 °C 6.9 °C 1017.8 hPa NE 4.8 km/h 6.4 km/h 71 % 0.0 mm
02:45 12.2 °C 7.1 °C 1017.8 hPa NE 8.0 km/h 9.7 km/h 71 % 0.0 mm
02:55 12.7 °C 7.4 °C 1017.8 hPa NNE 8.0 km/h 9.7 km/h 70 % 0.0 mm
03:05 12.8 °C 7.4 °C 1017.8 hPa NE 4.8 km/h 9.7 km/h 70 % 0.0 mm
03:15 13.1 °C 7.6 °C 1017.8 hPa NE 4.8 km/h 9.7 km/h 69 % 0.0 mm
03:25 13.3 °C 7.7 °C 1017.8 hPa NNE 4.8 km/h 9.7 km/h 69 % 0.0 mm
03:35 13.6 °C 7.8 °C 1017.8 hPa NNE 8.0 km/h 8.0 km/h 68 % 0.0 mm
09:45 13.9 °C 8.1 °C 1017.8 hPa ENE 7.4 km/h 7.4 km/h 68 % 0.0 mm
09:50 13.9 °C 8.1 °C 1017.8 hPa NE 9.5 km/h 9.5 km/h 68 % 0.0 mm
09:55 14.0 °C 7.9 °C 1017.8 hPa NNE 7.4 km/h 7.4 km/h 67 % 0.0 mm
10:00 14.0 °C 7.9 °C 1017.8 hPa NE 13.0 km/h 13.0 km/h 67 % 0.0 mm
10:05 13.9 °C 7.9 °C 1017.8 hPa ENE 11.1 km/h 11.1 km/h 67 % 0.0 mm
10:10 14.4 °C 8.3 °C 1017.8 hPa East 4.2 km/h 5.0 km/h 67 % 0.0 mm
10:15 14.4 °C 8.1 °C 1017.8 hPa NNE 11.1 km/h 11.1 km/h 66 % 0.0 mm
10:20 14.3 °C 8.1 °C 1017.8 hPa ENE 11.1 km/h 11.1 km/h 66 % 0.0 mm
10:25 14.2 °C 7.9 °C 1017.8 hPa North 11.1 km/h 11.1 km/h 66 % 0.0 mm
10:30 14.5 °C 8.2 °C 1017.8 hPa NNE 6.4 km/h 6.4 km/h 66 % 0.0 mm
10:35 14.6 °C 8.1 °C 1017.8 hPa ENE 11.1 km/h 11.1 km/h 65 % 0.0 mm
10:40 14.9 °C 8.6 °C 1017.8 hPa NNE 6.4 km/h 6.4 km/h 66 % 0.0 mm
10:45 14.5 °C 8.0 °C 1017.8 hPa ENE 11.1 km/h 11.1 km/h 65 % 0.0 mm
10:55 15.3 °C 8.8 °C 1017.8 hPa NE 5.6 km/h 5.6 km/h 65 % 0.0 mm
11:00 15.6 °C 9.1 °C 1017.8 hPa NNW 5.6 km/h 5.6 km/h 65 % 0.0 mm
11:05 15.8 °C 9.2 °C 1017.8 hPa East 5.6 km/h 5.6 km/h 65 % 0.0 mm
11:10 15.8 °C 9.0 °C 1016.8 hPa North 9.3 km/h 9.3 km/h 64 % 0.0 mm
11:15 15.9 °C 9.1 °C 1016.8 hPa ENE 3.7 km/h 3.7 km/h 64 % 0.0 mm
11:20 15.9 °C 9.1 °C 1016.8 hPa NNE 7.4 km/h 7.4 km/h 64 % 0.0 mm
11:25 15.9 °C 9.1 °C 1017.8 hPa WNW 7.4 km/h 7.4 km/h 64 % 0.0 mm
11:30 16.0 °C 8.9 °C 1017.8 hPa ENE 6.4 km/h 6.4 km/h 63 % 0.0 mm
11:35 15.9 °C 8.8 °C 1017.8 hPa ENE 9.3 km/h 9.3 km/h 63 % 0.0 mm
11:40 15.7 °C 8.7 °C 1017.8 hPa ENE 9.3 km/h 9.3 km/h 63 % 0.0 mm
11:45 15.9 °C 8.8 °C 1017.8 hPa NE 10.3 km/h 10.3 km/h 63 % 0.0 mm
11:50 15.8 °C 8.8 °C 1017.8 hPa NE 9.5 km/h 9.5 km/h 63 % 0.0 mm
11:55 15.8 °C 8.8 °C 1017.8 hPa ESE 12.2 km/h 12.2 km/h 63 % 0.0 mm
12:00 15.8 °C 8.8 °C 1017.8 hPa North 11.1 km/h 11.1 km/h 63 % 0.0 mm
12:05 15.9 °C 8.8 °C 1017.8 hPa ENE 11.1 km/h 11.1 km/h 63 % 0.0 mm
12:10 16.4 °C 9.3 °C 1017.8 hPa ENE 8.7 km/h 8.7 km/h 63 % 0.0 mm
12:15 16.7 °C 9.6 °C 1017.8 hPa NNE 5.6 km/h 5.6 km/h 63 % 0.0 mm
12:20 16.7 °C 9.6 °C 1017.8 hPa NE 5.6 km/h 5.6 km/h 63 % 0.0 mm
12:25 16.9 °C 9.6 °C 1017.8 hPa NE 5.0 km/h 5.0 km/h 62 % 0.0 mm
12:30 16.9 °C 9.6 °C 1017.8 hPa ENE 9.3 km/h 9.3 km/h 62 % 0.0 mm
12:35 16.8 °C 9.5 °C 1017.8 hPa ENE 9.3 km/h 9.3 km/h 62 % 0.0 mm
12:40 16.6 °C 9.1 °C 1017.8 hPa NNW 11.1 km/h 11.1 km/h 61 % 0.0 mm
12:45 16.5 °C 8.9 °C 1017.8 hPa NNE 16.7 km/h 16.7 km/h 61 % 0.0 mm
12:50 16.8 °C 9.2 °C 1017.8 hPa NNE 10.3 km/h 10.3 km/h 61 % 0.0 mm
12:55 16.5 °C 8.9 °C 1017.8 hPa North 13.0 km/h 13.0 km/h 61 % 0.0 mm
13:00 16.7 °C 9.1 °C 1017.8 hPa East 14.8 km/h 14.8 km/h 61 % 0.0 mm
13:05 16.7 °C 9.1 °C 1017.8 hPa NW 9.3 km/h 9.7 km/h 61 % 0.0 mm
13:10 16.6 °C 9.1 °C 1017.8 hPa ENE 16.7 km/h 16.7 km/h 61 % 0.0 mm
13:15 16.6 °C 8.8 °C 1017.8 hPa North 11.1 km/h 11.1 km/h 60 % 0.0 mm
13:20 17.0 °C 9.2 °C 1017.8 hPa NNW 7.4 km/h 7.4 km/h 60 % 0.0 mm
13:25 17.2 °C 9.4 °C 1016.8 hPa NE 7.4 km/h 7.4 km/h 60 % 0.0 mm
13:30 17.0 °C 8.9 °C 1016.8 hPa North 11.1 km/h 11.1 km/h 59 % 0.0 mm
13:35 17.2 °C 9.4 °C 1016.8 hPa NNE 5.6 km/h 5.6 km/h 60 % 0.0 mm
13:40 17.2 °C 9.4 °C 1016.8 hPa ENE 16.4 km/h 16.4 km/h 60 % 0.0 mm
13:42 17.1 °C 9.0 °C 1016.8 hPa NE 16.7 km/h 16.7 km/h 59 % 0.0 mm
13:47 17.2 °C 9.1 °C 1016.8 hPa ENE 7.4 km/h 7.4 km/h 59 % 0.0 mm
13:52 17.4 °C 9.3 °C 1015.8 hPa NNE 7.9 km/h 7.9 km/h 59 % 0.0 mm
13:57 17.4 °C 9.3 °C 1015.8 hPa NNE 7.4 km/h 7.4 km/h 59 % 0.0 mm
14:02 17.5 °C 9.4 °C 1015.8 hPa NNE 7.4 km/h 7.4 km/h 59 % 0.0 mm
14:07 17.6 °C 9.5 °C 1016.8 hPa NNE 7.4 km/h 7.4 km/h 59 % 0.0 mm
14:12 17.5 °C 9.2 °C 1016.8 hPa ENE 13.0 km/h 13.0 km/h 58 % 0.0 mm
14:17 17.6 °C 9.2 °C 1016.8 hPa ENE 9.3 km/h 9.3 km/h 58 % 0.0 mm
14:22 17.7 °C 9.3 °C 1015.8 hPa NNE 9.3 km/h 9.3 km/h 58 % 0.0 mm
14:27 17.7 °C 9.3 °C 1015.8 hPa NNE 9.3 km/h 9.3 km/h 58 % 0.0 mm
14:32 17.9 °C 9.5 °C 1015.8 hPa NNE 5.6 km/h 5.6 km/h 58 % 0.0 mm
14:37 18.0 °C 9.6 °C 1015.8 hPa ENE 9.3 km/h 9.3 km/h 58 % 0.0 mm
14:42 18.0 °C 9.6 °C 1015.8 hPa NE 8.7 km/h 8.7 km/h 58 % 0.0 mm
14:47 18.1 °C 9.7 °C 1015.8 hPa NNE 7.4 km/h 7.4 km/h 58 % 0.0 mm
14:52 18.1 °C 9.4 °C 1015.8 hPa NNE 8.7 km/h 8.7 km/h 57 % 0.0 mm
14:57 18.1 °C 9.4 °C 1015.8 hPa NE 11.1 km/h 11.1 km/h 57 % 0.0 mm
15:02 18.0 °C 9.3 °C 1015.8 hPa North 7.4 km/h 7.4 km/h 57 % 0.0 mm
15:07 18.1 °C 9.4 °C 1015.8 hPa NNE 7.4 km/h 7.4 km/h 57 % 0.0 mm
15:12 18.1 °C 9.4 °C 1015.8 hPa West 9.3 km/h 9.3 km/h 57 % 0.0 mm
15:17 18.2 °C 9.6 °C 1015.8 hPa North 9.3 km/h 9.3 km/h 57 % 0.0 mm
15:22 18.2 °C 9.6 °C 1015.8 hPa NW 4.2 km/h 4.2 km/h 57 % 0.0 mm
15:27 18.3 °C 9.6 °C 1015.8 hPa ENE 7.4 km/h 7.4 km/h 57 % 0.0 mm
15:32 18.3 °C 9.6 °C 1015.8 hPa NNE 6.4 km/h 6.4 km/h 57 % 0.0 mm
15:37 18.4 °C 9.7 °C 1015.8 hPa NNE 5.6 km/h 5.6 km/h 57 % 0.0 mm
15:42 18.4 °C 9.7 °C 1015.8 hPa NNE 3.7 km/h 3.7 km/h 57 % 0.0 mm
15:47 18.5 °C 9.8 °C 1015.8 hPa ESE 5.6 km/h 5.6 km/h 57 % 0.0 mm
15:52 18.5 °C 9.8 °C 1015.8 hPa ENE 5.6 km/h 5.6 km/h 57 % 0.0 mm
15:57 18.4 °C 9.7 °C 1015.8 hPa NE 6.9 km/h 6.9 km/h 57 % 0.0 mm
16:02 18.4 °C 9.4 °C 1015.8 hPa North 5.6 km/h 5.6 km/h 56 % 0.0 mm
16:07 18.4 °C 9.4 °C 1015.8 hPa NNE 5.6 km/h 5.6 km/h 56 % 0.0 mm
16:12 18.5 °C 9.8 °C 1015.8 hPa NW 2.3 km/h 2.3 km/h 57 % 0.0 mm
16:17 18.4 °C 9.4 °C 1015.8 hPa NE 7.4 km/h 7.4 km/h 56 % 0.0 mm
16:22 18.4 °C 9.7 °C 1016.8 hPa NNE 3.7 km/h 3.7 km/h 57 % 0.0 mm
16:27 18.4 °C 9.4 °C 1016.8 hPa ENE 4.7 km/h 4.7 km/h 56 % 0.0 mm
16:32 18.3 °C 9.4 °C 1016.8 hPa ENE 5.6 km/h 5.6 km/h 56 % 0.0 mm
16:37 18.2 °C 9.6 °C 1015.8 hPa NE 5.6 km/h 5.6 km/h 57 % 0.0 mm
16:42 18.2 °C 9.6 °C 1015.8 hPa NNE 5.3 km/h 5.3 km/h 57 % 0.0 mm
16:47 18.1 °C 9.4 °C 1015.8 hPa NNE 6.9 km/h 6.9 km/h 57 % 0.0 mm
16:57 18.0 °C 9.6 °C 1016.8 hPa ENE 5.6 km/h 5.6 km/h 58 % 0.0 mm
17:02 17.8 °C 9.7 °C 1016.8 hPa SE 9.3 km/h 9.3 km/h 59 % 0.0 mm
17:07 17.6 °C 9.7 °C 1016.8 hPa ESE 7.9 km/h 7.9 km/h 60 % 0.0 mm
17:12 17.6 °C 10.0 °C 1016.8 hPa SE 9.3 km/h 9.3 km/h 61 % 0.0 mm
17:17 17.4 °C 9.8 °C 1016.8 hPa ESE 9.3 km/h 9.3 km/h 61 % 0.0 mm
17:22 17.2 °C 9.8 °C 1016.8 hPa ESE 11.1 km/h 11.1 km/h 62 % 0.0 mm
17:27 17.1 °C 9.8 °C 1016.8 hPa ESE 5.6 km/h 5.6 km/h 62 % 0.0 mm
17:32 17.1 °C 10.0 °C 1016.8 hPa ESE 7.4 km/h 7.4 km/h 63 % 0.0 mm
17:42 17.0 °C 9.9 °C 1017.8 hPa ESE 7.4 km/h 7.4 km/h 63 % 0.0 mm
17:52 16.9 °C 10.1 °C 1017.8 hPa East 6.1 km/h 6.1 km/h 64 % 0.0 mm
17:57 16.9 °C 10.1 °C 1017.8 hPa ESE 4.7 km/h 4.7 km/h 64 % 0.0 mm
18:02 16.9 °C 10.1 °C 1017.8 hPa ESE 5.6 km/h 5.6 km/h 64 % 0.0 mm
18:07 16.8 °C 9.9 °C 1017.8 hPa East 5.6 km/h 5.6 km/h 64 % 0.0 mm
18:12 16.8 °C 9.9 °C 1017.8 hPa ESE 7.4 km/h 7.4 km/h 64 % 0.0 mm
18:15 13.7 °C 9.6 °C 1019.9 hPa Calm   1.6 km/h 76 % 0.0 mm
18:17 16.8 °C 9.9 °C 1017.8 hPa ENE 3.7 km/h 3.7 km/h 64 % 0.0 mm
18:22 16.7 °C 9.8 °C 1017.8 hPa ENE 5.6 km/h 5.6 km/h 64 % 0.0 mm
18:25 13.6 °C 9.7 °C 1019.9 hPa Calm   3.2 km/h 77 % 0.0 mm
18:27 16.7 °C 9.8 °C 1017.8 hPa ENE 4.2 km/h 4.2 km/h 64 % 0.0 mm
18:32 16.7 °C 9.8 °C 1017.8 hPa ENE 5.6 km/h 5.6 km/h 64 % 0.0 mm
18:35 13.7 °C 9.7 °C 1019.9 hPa NNE 3.2 km/h 3.2 km/h 77 % 0.0 mm
18:37 16.6 °C 9.8 °C 1017.8 hPa East 4.2 km/h 4.2 km/h 64 % 0.0 mm
18:42 16.6 °C 9.8 °C 1017.8 hPa ENE 5.6 km/h 5.6 km/h 64 % 0.0 mm
18:45 13.7 °C 9.7 °C 1019.9 hPa NNE 3.2 km/h 4.8 km/h 77 % 0.0 mm
18:47 16.6 °C 10.0 °C 1017.8 hPa NE 3.7 km/h 3.7 km/h 65 % 0.0 mm
18:52 16.6 °C 10.0 °C 1017.8 hPa East 7.4 km/h 7.4 km/h 65 % 0.0 mm
18:55 13.5 °C 9.2 °C 1019.9 hPa NE 1.6 km/h 4.8 km/h 75 % 0.0 mm
18:57 16.6 °C 10.0 °C 1017.8 hPa ENE 3.7 km/h 3.7 km/h 65 % 0.0 mm
19:02 16.6 °C 10.0 °C 1017.8 hPa ENE 1.9 km/h 1.9 km/h 65 % 0.0 mm
19:05 13.4 °C 9.1 °C 1019.9 hPa Calm   3.2 km/h 75 % 0.0 mm
19:07 16.6 °C 10.0 °C 1018.8 hPa ENE 1.9 km/h 1.9 km/h 65 % 0.0 mm
19:12 16.6 °C 10.0 °C 1018.8 hPa Calm     65 % 0.0 mm
19:15 13.4 °C 9.1 °C 1019.9 hPa NNE 1.6 km/h 4.8 km/h 75 % 0.0 mm
19:17 16.5 °C 9.9 °C 1018.8 hPa ESE 1.9 km/h   65 % 0.0 mm
19:22 16.5 °C 10.1 °C 1018.8 hPa Calm     66 % 0.0 mm
19:25 13.3 °C 8.9 °C 1019.9 hPa NNE 1.6 km/h 3.2 km/h 75 % 0.0 mm
19:27 16.4 °C 10.1 °C 1018.8 hPa Calm     66 % 0.0 mm
19:32 16.3 °C 9.9 °C 1018.8 hPa Calm     66 % 0.0 mm
19:35 13.3 °C 8.9 °C 1019.9 hPa Calm   3.2 km/h 75 % 0.0 mm
19:37 16.2 °C 9.8 °C 1018.8 hPa Calm     66 % 0.0 mm
19:42 16.1 °C 9.7 °C 1018.8 hPa Calm     66 % 0.0 mm
19:45 13.2 °C 8.9 °C 1019.9 hPa NE 1.6 km/h 3.2 km/h 75 % 0.0 mm
19:47 16.1 °C 9.9 °C 1018.8 hPa Calm     67 % 0.0 mm
19:52 16.0 °C 9.9 °C 1018.8 hPa Calm     67 % 0.0 mm
19:55 13.2 °C 8.9 °C 1019.9 hPa Calm   3.2 km/h 75 % 0.0 mm
19:57 16.0 °C 9.9 °C 1018.8 hPa Calm     67 % 0.0 mm
20:02 15.9 °C 9.8 °C 1018.8 hPa Calm     67 % 0.0 mm
20:05 13.3 °C 8.9 °C 1019.9 hPa West 1.6 km/h 1.6 km/h 75 % 0.0 mm
20:07 15.8 °C 9.9 °C 1018.8 hPa Calm     68 % 0.0 mm
20:12 15.7 °C 9.8 °C 1018.8 hPa South 1.4 km/h   68 % 0.0 mm
20:15 13.3 °C 8.9 °C 1019.9 hPa Calm   1.6 km/h 75 % 0.0 mm
20:17 15.6 °C 9.7 °C 1018.8 hPa Calm     68 % 0.0 mm
20:22 15.5 °C 9.4 °C 1018.8 hPa WNW 3.5 km/h 3.5 km/h 67 % 0.0 mm
20:25 13.4 °C 9.3 °C 1019.9 hPa Calm   3.2 km/h 76 % 0.0 mm
20:27 15.5 °C 9.6 °C 1018.8 hPa WNW 1.9 km/h 1.9 km/h 68 % 0.0 mm
20:32 15.4 °C 9.5 °C 1018.8 hPa Calm     68 % 0.0 mm
20:35 13.4 °C 9.4 °C 1019.9 hPa Calm   3.2 km/h 77 % 0.0 mm
20:37 15.4 °C 9.5 °C 1019.9 hPa WNW 2.3 km/h 2.3 km/h 68 % 0.0 mm
20:42 15.2 °C 9.6 °C 1019.9 hPa WNW 2.6 km/h 2.6 km/h 69 % 0.0 mm
20:45 13.4 °C 9.7 °C 1019.9 hPa Calm     78 % 0.0 mm
20:47 15.2 °C 9.6 °C 1019.9 hPa West 1.9 km/h 1.9 km/h 69 % 0.0 mm
20:52 15.2 °C 9.6 °C 1019.9 hPa West 1.9 km/h   69 % 0.0 mm
20:55 13.3 °C 9.6 °C 1019.9 hPa South 1.6 km/h 3.2 km/h 78 % 0.0 mm
20:57 15.1 °C 9.4 °C 1019.9 hPa Calm     69 % 0.0 mm
21:02 15.0 °C 9.3 °C 1019.9 hPa Calm     69 % 0.0 mm
21:05 13.3 °C 9.6 °C 1019.9 hPa Calm   1.6 km/h 78 % 0.0 mm
21:07 15.1 °C 9.4 °C 1019.9 hPa WNW 2.3 km/h 2.3 km/h 69 % 0.0 mm
21:12 15.1 °C 9.4 °C 1019.9 hPa Calm     69 % 0.0 mm
21:15 13.2 °C 9.4 °C 1019.9 hPa Calm   1.6 km/h 78 % 0.0 mm
21:17 15.1 °C 9.4 °C 1019.9 hPa WNW 2.3 km/h   69 % 0.0 mm
21:22 15.0 °C 9.3 °C 1019.9 hPa WNW 2.3 km/h   69 % 0.0 mm
21:25 13.1 °C 9.3 °C 1019.9 hPa Calm   1.6 km/h 78 % 0.0 mm
21:27 15.0 °C 9.3 °C 1019.9 hPa NW 1.9 km/h   69 % 0.0 mm
21:32 15.0 °C 9.3 °C 1019.9 hPa NW 2.3 km/h   69 % 0.0 mm
21:35 13.1 °C 9.3 °C 1019.9 hPa Calm   3.2 km/h 78 % 0.0 mm
21:37 15.0 °C 9.6 °C 1019.9 hPa NW 1.4 km/h   70 % 0.0 mm
21:42 15.0 °C 9.6 °C 1019.9 hPa NW 1.4 km/h   70 % 0.0 mm
21:45 13.1 °C 9.3 °C 1019.9 hPa ENE 1.6 km/h 3.2 km/h 78 % 0.0 mm
21:47 15.1 °C 9.7 °C 1019.9 hPa NW 1.9 km/h 1.9 km/h 70 % 0.0 mm
21:52 14.9 °C 9.7 °C 1018.8 hPa Calm     71 % 0.0 mm
21:55 13.1 °C 9.3 °C 1019.9 hPa Calm   1.6 km/h 78 % 0.0 mm
21:57 14.8 °C 9.6 °C 1018.8 hPa ENE 2.3 km/h 2.3 km/h 71 % 0.0 mm
22:02 14.8 °C 9.6 °C 1018.8 hPa ENE 1.9 km/h   71 % 0.0 mm
22:05 13.1 °C 9.6 °C 1019.9 hPa Calm   1.6 km/h 79 % 0.0 mm
22:07 14.9 °C 9.9 °C 1019.9 hPa Calm     72 % 0.0 mm
22:12 14.8 °C 9.8 °C 1019.9 hPa ENE 3.7 km/h 3.7 km/h 72 % 0.0 mm
22:15 13.0 °C 9.3 °C 1019.9 hPa Calm   1.6 km/h 78 % 0.0 mm
22:17 14.7 °C 9.7 °C 1019.9 hPa ENE 3.7 km/h 3.7 km/h 72 % 0.0 mm
22:22 14.7 °C 9.7 °C 1019.9 hPa ENE 1.9 km/h   72 % 0.0 mm
22:25 13.0 °C 9.3 °C 1020.9 hPa Calm   3.2 km/h 78 % 0.0 mm
22:27 14.6 °C 9.8 °C 1019.9 hPa ENE 1.9 km/h   73 % 0.0 mm
22:32 14.7 °C 9.9 °C 1019.9 hPa ENE 2.3 km/h   73 % 0.0 mm
22:35 13.0 °C 9.3 °C 1020.9 hPa Calm     78 % 0.0 mm
22:37 14.6 °C 9.8 °C 1019.9 hPa ENE 2.3 km/h 2.3 km/h 73 % 0.0 mm
22:42 14.5 °C 9.7 °C 1019.9 hPa Calm     73 % 0.0 mm
22:45 13.1 °C 9.3 °C 1020.9 hPa NNE 1.6 km/h 3.2 km/h 78 % 0.0 mm
22:47 14.4 °C 9.6 °C 1019.9 hPa NE 2.3 km/h 2.3 km/h 73 % 0.0 mm
22:52 14.3 °C 9.7 °C 1019.9 hPa NE 1.9 km/h   74 % 0.0 mm
22:55 13.0 °C 9.3 °C 1020.9 hPa Calm   3.2 km/h 78 % 0.0 mm
23:05 13.0 °C 9.3 °C 1020.9 hPa Calm     78 % 0.0 mm
23:07 14.2 °C 9.6 °C 1019.9 hPa NE 1.9 km/h   74 % 0.0 mm
23:12 14.0 °C 9.4 °C 1019.9 hPa Calm     74 % 0.0 mm
23:15 13.0 °C 8.9 °C 1021.9 hPa West 3.2 km/h 3.2 km/h 76 % 0.0 mm
23:17 14.0 °C 9.4 °C 1019.9 hPa Calm     74 % 0.0 mm
23:22 14.0 °C 9.4 °C 1019.9 hPa Calm     74 % 0.0 mm
23:25 13.2 °C 8.7 °C 1020.9 hPa WSW 4.8 km/h 4.8 km/h 74 % 0.0 mm
23:27 13.9 °C 9.6 °C 1019.9 hPa Calm     75 % 0.0 mm
23:32 13.9 °C 9.6 °C 1019.9 hPa ENE 3.7 km/h 3.7 km/h 75 % 0.0 mm
23:35 13.3 °C 8.6 °C 1020.9 hPa WSW 1.6 km/h 6.4 km/h 73 % 0.0 mm
23:37 13.9 °C 9.6 °C 1019.9 hPa ENE 1.9 km/h 1.9 km/h 75 % 0.0 mm
23:42 13.9 °C 9.6 °C 1019.9 hPa Calm     75 % 0.0 mm
23:45 13.2 °C 8.1 °C 1021.9 hPa WSW 1.6 km/h 1.6 km/h 71 % 0.0 mm
23:47 13.9 °C 9.6 °C 1019.9 hPa ENE 1.9 km/h   75 % 0.0 mm
23:52 13.9 °C 9.6 °C 1019.9 hPa Calm     75 % 0.0 mm
23:55 13.2 °C 7.8 °C 1021.9 hPa NW 4.8 km/h 6.4 km/h 70 % 0.0 mm
23:57 13.8 °C 9.4 °C 1019.9 hPa Calm     75 % 0.0 mm
Meteo Sesrovires
Elogis d' Weather Underground - 3.75 mb

Guio original per  Jim McMurry - jmcmurry@mwt.net Adaptat per a la plantilla per  Wim van der Kuil - Leuven-Template.eu

Trobareu la nostra informacio del temps tambe a:

Weather Underground

AWEKAS